Time;durP1;ratioP1;P1;durP2;ratioP2;P2;SDS_P1;SDS_P2;PMS_P1;PMS_P2;Temp;Humidity;BMP_temperature;BMP_pressure;BME280_temperature;BME280_humidity;BME280_pressure;Samples;Min_cycle;Max_cycle;Signal;HPM_P1;HPM_P2
2021/01/13 00:00:01;;;;;;;61.22;28.60;;;;;;;-0.76;90.48;99485.47;5054950;28;20029;-71
2021/01/13 00:02:26;;;;;;;64.03;30.20;;;;;;;-0.76;90.50;99482.88;5037094;28;20120;-72
2021/01/13 00:04:52;;;;;;;62.03;29.30;;;;;;;-0.85;90.63;99485.72;5037316;28;20458;-72
2021/01/13 00:07:17;;;;;;;68.10;31.45;;;;;;;-1.11;90.42;99449.72;5055053;28;20102;-71
2021/01/13 00:09:43;;;;;;;64.35;28.83;;;;;;;-0.78;90.47;99512.59;5037030;28;20057;-72
2021/01/13 00:12:09;;;;;;;68.25;29.80;;;;;;;-0.88;90.70;99489.25;5054857;28;20112;-72
2021/01/13 00:14:36;;;;;;;70.50;30.15;;;;;;;-0.69;90.23;99507.97;5054711;28;20037;-72
2021/01/13 00:17:02;;;;;;;61.50;29.67;;;;;;;-0.71;90.44;99488.81;5037426;28;20079;-72
2021/01/13 00:19:27;;;;;;;63.72;29.63;;;;;;;-0.74;90.38;99491.53;5036945;28;20120;-72
2021/01/13 00:21:54;;;;;;;67.97;30.60;;;;;;;-0.83;90.67;99481.28;5054586;28;20029;-72
2021/01/13 00:24:21;;;;;;;74.05;31.98;;;;;;;-1.03;90.52;99442.56;5054396;28;20041;-80
2021/01/13 00:26:48;;;;;;;67.63;31.15;;;;;;;-0.82;90.39;99464.69;5020252;28;20033;-71
2021/01/13 00:29:15;;;;;;;69.60;31.77;;;;;;;-0.74;90.23;99474.97;5036827;28;20082;-71
2021/01/13 00:31:40;;;;;;;64.53;30.48;;;;;;;-0.87;90.64;99456.06;5020112;28;20041;-72
2021/01/13 00:34:10;;;;;;;70.40;31.75;;;;;;;-0.94;90.70;99454.53;5054461;28;20036;-71
2021/01/13 00:36:35;;;;;;;66.40;29.65;;;;;;;-1.02;90.80;99439.03;5036457;28;20438;-72
2021/01/13 00:39:03;;;;;;;66.50;31.33;;;;;;;-0.72;90.86;99479.25;5054919;28;20134;-71
2021/01/13 00:41:28;;;;;;;65.90;30.77;;;;;;;-0.75;90.60;99492.44;5053971;28;20044;-71
2021/01/13 00:43:54;;;;;;;70.53;31.85;;;;;;;-0.79;90.83;99477.69;5054571;28;20029;-71
2021/01/13 00:46:21;;;;;;;65.35;32.28;;;;;;;-0.85;91.02;99469.16;5054431;28;20116;-72
2021/01/13 00:48:46;;;;;;;74.32;32.28;;;;;;;-0.71;91.16;99494.06;5036277;28;20033;-72
2021/01/13 00:51:12;;;;;;;70.72;32.08;;;;;;;-0.94;90.72;99450.16;5036584;28;20577;-72
2021/01/13 00:53:38;;;;;;;68.97;30.95;;;;;;;-0.62;90.71;99499.06;5036066;28;20047;-71
2021/01/13 00:56:04;;;;;;;69.00;32.50;;;;;;;-0.68;90.25;99493.97;5036417;28;20033;-72
2021/01/13 00:58:30;;;;;;;66.38;31.20;;;;;;;-0.69;90.34;99497.50;5053709;28;20477;-73
2021/01/13 01:00:56;;;;;;;73.47;32.67;;;;;;;-0.52;89.96;99498.81;5036263;28;20128;-72
2021/01/13 01:03:22;;;;;;;69.75;31.55;;;;;;;-0.61;90.25;99478.97;5036159;28;20033;-73
2021/01/13 01:05:49;;;;;;;69.38;32.28;;;;;;;-0.50;90.15;99490.00;5054074;28;20044;-73
2021/01/13 01:08:15;;;;;;;66.95;31.83;;;;;;;-0.51;90.18;99490.03;5053853;28;20037;-73
2021/01/13 01:10:41;;;;;;;66.38;31.67;;;;;;;-0.73;90.37;99455.72;5036232;28;20044;-73
2021/01/13 01:13:07;;;;;;;70.75;33.25;;;;;;;-0.55;90.09;99496.28;5053423;28;20029;-73
2021/01/13 01:15:35;;;;;;;68.88;30.90;;;;;;;-0.53;90.01;99505.81;5053887;28;20025;-73
2021/01/13 01:18:01;;;;;;;66.80;31.17;;;;;;;-0.54;89.88;99487.53;5035872;28;20039;-71
2021/01/13 01:20:26;;;;;;;67.90;31.08;;;;;;;-0.41;89.46;99494.13;5034913;28;20029;-70
2021/01/13 01:22:57;;;;;;;68.35;30.88;;;;;;;-0.71;89.54;99446.06;5036102;28;20463;-71
2021/01/13 01:25:26;;;;;;;66.22;30.98;;;;;;;-0.69;89.31;99458.22;5035838;28;20037;-71
2021/01/13 01:27:53;;;;;;;64.80;31.48;;;;;;;-0.63;89.34;99465.91;5035645;28;20029;-71
2021/01/13 01:30:20;;;;;;;70.28;32.33;;;;;;;-0.58;89.58;99478.88;5035964;28;20029;-71
2021/01/13 01:32:45;;;;;;;62.88;31.85;;;;;;;-0.53;90.27;99490.09;5053036;28;20060;-72
2021/01/13 01:35:12;;;;;;;62.67;30.17;;;;;;;-0.61;90.08;99466.72;5053578;28;20498;-71
2021/01/13 01:37:39;;;;;;;65.65;31.38;;;;;;;-0.47;89.92;99468.97;5053033;28;20053;-71
2021/01/13 01:40:07;;;;;;;65.05;30.80;;;;;;;-0.68;89.74;99428.50;5053258;28;20044;-71
2021/01/13 01:42:32;;;;;;;66.25;30.95;;;;;;;-0.79;89.28;99412.22;5052903;28;20111;-71
2021/01/13 01:44:58;;;;;;;64.07;29.67;;;;;;;-0.40;89.49;99464.41;5053174;28;20470;-72
2021/01/13 01:47:55;;;;;;;61.90;29.23;;;;;;;-0.33;88.97;99463.34;5035268;28;20029;-74
2021/01/13 01:50:22;;;;;;;59.88;28.73;;;;;;;-0.31;88.96;99465.00;5010759;28;20045;-72
2021/01/13 01:52:55;;;;;;;64.53;29.70;;;;;;;-0.37;88.79;99465.19;5052697;28;20036;-72
2021/01/13 01:55:27;;;;;;;61.33;28.77;;;;;;;-0.22;88.47;99481.38;5035420;28;20087;-71
2021/01/13 01:57:57;;;;;;;59.67;28.35;;;;;;;-0.26;88.58;99479.75;5035086;28;20086;-71
2021/01/13 02:00:30;;;;;;;59.35;29.85;;;;;;;-0.29;88.71;99470.19;5018889;28;20075;-72
2021/01/13 02:03:06;;;;;;;60.35;28.27;;;;;;;-0.26;88.91;99470.13;5053261;28;20033;-71
2021/01/13 02:05:34;;;;;;;59.70;28.10;;;;;;;-0.24;88.55;99468.31;5052668;28;20047;-72
2021/01/13 02:08:02;;;;;;;58.08;28.10;;;;;;;-0.46;88.31;99420.06;5035122;28;20386;-70
2021/01/13 02:10:27;;;;;;;62.33;28.17;;;;;;;-0.41;88.64;99444.34;5034566;28;20028;-83
2021/01/13 02:13:01;;;;;;;59.55;27.67;;;;;;;-0.46;88.28;99420.91;5052891;28;20044;-71
2021/01/13 02:15:26;;;;;;;61.58;27.45;;;;;;;-0.18;88.40;99460.28;5053056;28;20033;-71
2021/01/13 02:17:55;;;;;;;56.25;26.48;;;;;;;-0.14;88.78;99456.66;5034784;28;20490;-70
2021/01/13 02:20:24;;;;;;;39.20;18.65;;;;;;;-0.08;88.94;99429.41;5052624;28;20159;-71
2021/01/13 02:22:56;;;;;;;39.10;17.52;;;;;;;0.05;88.38;99429.91;5052283;28;20036;-70
2021/01/13 02:25:39;;;;;;;38.20;17.02;;;;;;;0.27;87.94;99444.91;5055669;28;20135;-71
2021/01/13 02:28:09;;;;;;;42.42;20.63;;;;;;;0.23;88.15;99452.94;5057088;28;20104;-70
2021/01/13 02:30:40;;;;;;;45.15;21.30;;;;;;;0.22;88.25;99451.22;5056524;28;20033;-71
2021/01/13 02:33:48;;;;;;;41.20;18.75;;;;;;;0.20;87.75;99437.31;5056758;28;20052;-70
2021/01/13 02:36:30;;;;;;;40.00;21.05;;;;;;;0.22;88.01;99444.22;5038997;28;20479;-70
2021/01/13 02:39:00;;;;;;;44.17;21.70;;;;;;;0.06;87.73;99408.00;5056760;28;20048;-72
2021/01/13 02:41:31;;;;;;;47.92;22.98;;;;;;;0.20;88.13;99442.56;5038861;28;20043;-73
2021/01/13 02:43:58;;;;;;;45.35;22.05;;;;;;;-0.06;88.39;99399.63;5056425;28;20064;-72
2021/01/13 02:46:30;;;;;;;49.08;24.23;;;;;;;0.19;87.88;99452.19;5056483;28;20039;-72
2021/01/13 02:48:57;;;;;;;50.67;23.27;;;;;;;0.18;88.09;99449.59;5056467;28;20033;-74
2021/01/13 02:51:29;;;;;;;51.33;23.25;;;;;;;0.13;88.04;99443.63;5056624;28;20432;-74
2021/01/13 02:53:56;;;;;;;43.80;22.17;;;;;;;0.19;88.41;99433.81;5038760;28;20033;-72
2021/01/13 02:56:33;;;;;;;47.25;21.73;;;;;;;0.15;88.70;99434.81;5038395;28;20154;-72
2021/01/13 02:59:07;;;;;;;45.88;21.95;;;;;;;0.18;88.81;99449.59;5056452;28;20105;-72
2021/01/13 03:01:37;;;;;;;42.70;19.38;;;;;;;0.04;89.39;99422.94;5055949;28;20032;-73
2021/01/13 03:04:03;;;;;;;39.00;19.20;;;;;;;0.05;89.50;99416.78;5056574;28;20032;-71
2021/01/13 03:06:29;;;;;;;35.42;17.25;;;;;;;0.35;89.24;99451.69;5038591;28;20493;-72
2021/01/13 03:09:05;;;;;;;34.17;17.23;;;;;;;0.37;89.13;99458.59;5037893;28;20033;-75
2021/01/13 03:11:31;;;;;;;32.53;15.38;;;;;;;0.03;89.08;99403.72;5056329;28;20094;-81
2021/01/13 03:14:25;;;;;;;34.67;17.73;;;;;;;0.40;89.00;99453.28;5022075;28;20453;-75
2021/01/13 03:17:02;;;;;;;32.03;17.17;;;;;;;0.43;89.06;99460.19;5056067;28;20032;-74
2021/01/13 03:19:46;;;;;;;38.45;19.17;;;;;;;0.20;89.37;99447.78;5039268;28;20128;-74
2021/01/13 03:22:16;;;;;;;;;;;;;;;0.33;89.52;99464.00;5038768;28;20061;-75
2021/01/13 03:24:52;;;;;;;38.92;18.27;;;;;;;0.29;89.22;99465.88;5021113;28;19913;-75
2021/01/13 03:27:18;;;;;;;39.15;19.45;;;;;;;0.23;89.02;99453.78;5055626;28;20494;-75
2021/01/13 03:29:47;;;;;;;38.42;18.45;;;;;;;0.33;89.32;99475.34;5037714;28;20033;-76
2021/01/13 03:32:17;;;;;;;40.28;19.48;;;;;;;0.25;89.62;99466.84;5055706;28;20036;-76
2021/01/13 03:35:13;;;;;;;36.42;19.08;;;;;;;0.26;89.67;99484.31;5037144;28;20068;-73
2021/01/13 03:37:58;;;;;;;37.33;18.63;;;;;;;0.26;89.93;99492.19;5034667;28;20382;-73
2021/01/13 03:40:27;;;;;;;38.33;18.65;;;;;;;0.22;89.95;99488.81;5055712;28;20029;-72
2021/01/13 03:42:55;;;;;;;33.38;16.70;;;;;;;0.12;90.53;99497.84;5037370;28;20982;-72
2021/01/13 03:45:41;;;;;;;34.97;18.63;;;;;;;0.13;90.76;99499.56;5055552;28;20025;-72
2021/01/13 03:48:18;;;;;;;36.05;18.80;;;;;;;0.17;91.03;99510.81;5037515;28;20425;-71
2021/01/13 03:50:46;;;;;;;34.53;17.95;;;;;;;0.14;90.85;99500.44;5055010;28;20443;-72
2021/01/13 03:53:14;;;;;;;33.08;16.73;;;;;;;0.18;90.83;99494.16;5037703;28;20099;-71
2021/01/13 03:55:41;;;;;;;30.67;14.75;;;;;;;0.24;90.32;99507.09;5055305;28;20040;-73
2021/01/13 03:58:43;;;;;;;17.08;9.32;;;;;;;0.29;90.55;99513.09;5037448;28;20079;-72
2021/01/13 04:01:20;;;;;;;30.77;15.60;;;;;;;0.29;90.04;99518.34;5055047;28;20037;-72
2021/01/13 04:04:10;;;;;;;29.20;14.80;;;;;;;0.11;89.73;99479.53;5054942;28;20104;-72
2021/01/13 04:06:43;;;;;;;26.92;13.98;;;;;;;0.39;89.36;99516.28;5054989;28;20078;-77
2021/01/13 04:09:15;;;;;;;28.05;13.35;;;;;;;0.49;88.63;99523.84;5037612;28;20386;-71
2021/01/13 04:11:44;;;;;;;30.15;14.38;;;;;;;0.52;88.52;99522.88;5020749;28;20033;-71
2021/01/13 04:14:10;;;;;;;21.52;8.23;;;;;;;0.53;88.58;99519.34;5037602;28;20474;-72
2021/01/13 04:16:38;;;;;;;26.20;14.73;;;;;;;0.36;88.87;99525.09;5054619;28;20064;-82
2021/01/13 04:19:05;;;;;;;26.80;13.73;;;;;;;0.20;88.82;99480.13;5037148;28;20033;-72
2021/01/13 04:21:32;;;;;;;27.23;15.77;;;;;;;0.14;88.52;99458.47;5054871;28;20025;-72
2021/01/13 04:23:58;;;;;;;28.77;14.65;;;;;;;0.37;88.82;99513.69;5036484;28;20037;-72
2021/01/13 04:26:25;;;;;;;26.98;14.88;;;;;;;-0.08;89.11;99459.13;5054525;28;20029;-72
2021/01/13 04:28:51;;;;;;;30.83;15.48;;;;;;;0.25;89.38;99530.66;5054275;28;20475;-71
2021/01/13 04:31:17;;;;;;;27.90;14.13;;;;;;;0.33;88.89;99517.31;5054426;28;20078;-71
2021/01/13 04:33:42;;;;;;;23.20;12.38;;;;;;;0.28;89.12;99524.47;5054106;28;20397;-72
2021/01/13 04:36:09;;;;;;;30.10;15.85;;;;;;;-0.07;89.28;99481.81;5054957;28;20461;-72
2021/01/13 04:38:35;;;;;;;28.65;13.98;;;;;;;0.18;89.07;99526.50;5054118;28;20057;-72
2021/01/13 04:41:17;;;;;;;30.05;14.93;;;;;;;0.12;88.99;99507.47;5054041;28;20082;-71
2021/01/13 04:44:01;;;;;;;26.00;13.68;;;;;;;0.08;89.06;99526.81;5054046;28;20110;-72
2021/01/13 04:46:38;;;;;;;24.27;13.98;;;;;;;0.13;89.12;99535.41;5053869;28;20497;-72
2021/01/13 04:49:20;;;;;;;27.35;14.50;;;;;;;0.11;89.35;99526.75;5036719;28;20040;-71
2021/01/13 04:51:47;;;;;;;29.17;15.25;;;;;;;0.10;89.12;99530.28;5054378;28;20064;-72
2021/01/13 04:54:14;;;;;;;21.42;10.82;;;;;;;0.01;89.38;99514.81;5054266;28;20501;-71
2021/01/13 04:56:58;;;;;;;28.42;14.13;;;;;;;0.20;88.35;99534.34;5054012;28;20041;-72
2021/01/13 04:59:30;;;;;;;26.77;14.05;;;;;;;0.15;88.15;99526.59;5054114;28;20025;-71
2021/01/13 05:02:08;;;;;;;10.18;5.57;;;;;;;0.21;87.84;99528.19;5053770;28;20033;-71
2021/01/13 05:04:59;;;;;;;24.48;12.98;;;;;;;0.20;87.33;99534.34;5036372;28;20040;-71
2021/01/13 05:07:37;;;;;;;24.90;12.23;;;;;;;0.20;87.31;99536.97;5042056;28;20500;-71
2021/01/13 05:10:09;;;;;;;22.02;12.20;;;;;;;0.21;87.10;99543.94;5035779;28;20478;-70
2021/01/13 05:12:52;;;;;;;21.85;12.20;;;;;;;0.25;86.97;99540.31;5035862;28;20078;-70
2021/01/13 05:15:19;;;;;;;18.55;10.60;;;;;;;0.32;85.87;99539.22;5036232;28;20033;-70
2021/01/13 05:17:57;;;;;;;20.88;11.07;;;;;;;0.29;86.27;99557.69;5053610;28;20474;-71
2021/01/13 05:20:25;;;;;;;21.52;11.90;;;;;;;0.32;86.23;99551.47;5035752;28;20052;-72
2021/01/13 05:22:52;;;;;;;19.90;9.63;;;;;;;0.19;85.86;99548.34;5053429;28;20033;-72
2021/01/13 05:25:32;;;;;;;21.55;10.55;;;;;;;0.24;85.83;99554.31;5053652;28;20060;-72
2021/01/13 05:28:11;;;;;;;19.20;11.15;;;;;;;0.12;85.44;99526.69;5053165;28;20041;-72
2021/01/13 05:30:39;;;;;;;19.90;10.50;;;;;;;0.28;85.23;99558.56;5053541;28;20029;-72
2021/01/13 05:33:10;;;;;;;17.77;8.45;;;;;;;0.38;84.72;99554.75;5053087;28;20100;-72
2021/01/13 05:35:42;;;;;;;16.95;8.77;;;;;;;0.10;84.40;99504.06;5053361;28;20033;-72
2021/01/13 05:38:24;;;;;;;18.35;9.18;;;;;;;0.29;84.49;99573.44;5055421;28;20060;-72
2021/01/13 05:40:53;;;;;;;15.82;8.48;;;;;;;0.33;83.97;99559.31;5073060;28;20024;-72
2021/01/13 05:43:21;;;;;;;18.77;9.20;;;;;;;0.36;83.47;99569.69;5071894;28;20033;-71
2021/01/13 05:45:47;;;;;;;15.75;8.23;;;;;;;0.30;82.86;99562.03;5073003;28;20494;-73
2021/01/13 05:48:15;;;;;;;16.77;8.07;;;;;;;0.45;82.27;99574.66;5073263;28;20033;-72
2021/01/13 05:50:41;;;;;;;16.25;8.88;;;;;;;0.47;81.97;99593.84;5071820;28;20555;-72
2021/01/13 05:53:07;;;;;;;8.10;4.88;;;;;;;0.50;81.66;99591.16;5072750;28;20032;-71
2021/01/13 05:55:32;;;;;;;15.43;8.00;;;;;;;0.41;81.69;99578.31;5071728;28;20036;-71
2021/01/13 05:58:00;;;;;;;14.13;6.68;;;;;;;0.57;81.19;99607.56;5072829;28;20028;-71
2021/01/13 06:00:31;;;;;;;12.98;6.30;;;;;;;0.57;81.11;99602.31;5072185;28;20059;-72
2021/01/13 06:03:00;;;;;;;15.40;6.85;;;;;;;0.59;81.46;99603.16;5072887;28;20036;-72
2021/01/13 06:05:28;;;;;;;14.70;7.07;;;;;;;0.57;81.61;99608.41;5071913;28;20033;-72
2021/01/13 06:07:57;;;;;;;14.02;7.40;;;;;;;0.47;82.01;99603.47;5071316;28;20071;-72
2021/01/13 06:10:28;;;;;;;12.27;6.95;;;;;;;0.60;80.87;99606.63;5071815;28;20390;-71
2021/01/13 06:12:58;;;;;;;11.68;6.57;;;;;;;0.69;80.42;99619.47;5071627;28;20032;-72
2021/01/13 06:15:24;;;;;;;9.27;5.38;;;;;;;0.60;80.21;99588.25;5072961;28;20485;-71
2021/01/13 06:17:54;;;;;;;17.90;6.88;;;;;;;0.69;80.11;99603.72;5071508;28;20036;-72
2021/01/13 06:20:21;;;;;;;10.98;5.50;;;;;;;0.70;79.95;99605.44;5072909;28;20037;-71
2021/01/13 06:22:48;;;;;;;12.88;6.68;;;;;;;0.57;80.21;99611.03;5072882;28;20075;-73
2021/01/13 06:25:24;;;;;;;13.18;7.18;;;;;;;0.78;80.02;99629.69;5072729;28;20028;-72
2021/01/13 06:28:11;;;;;;;13.73;6.38;;;;;;;0.65;80.26;99623.09;5071589;28;20070;-73
2021/01/13 06:30:41;;;;;;;10.98;5.80;;;;;;;0.57;80.15;99637.28;5072814;28;20040;-72
2021/01/13 06:33:08;;;;;;;9.93;5.57;;;;;;;0.56;80.09;99630.31;5054729;28;20422;-72
2021/01/13 06:35:42;;;;;;;10.68;5.65;;;;;;;0.66;79.90;99654.53;5073023;28;20377;-72
2021/01/13 06:38:35;;;;;;;10.23;5.43;;;;;;;0.61;79.84;99647.72;5060608;28;20486;-72
2021/01/13 06:41:03;;;;;;;13.07;5.43;;;;;;;0.54;79.46;99647.88;5052472;28;20029;-72
2021/01/13 06:43:28;;;;;;;10.93;5.55;;;;;;;0.46;79.52;99634.13;5034711;28;20036;-72
2021/01/13 06:45:55;;;;;;;11.60;5.60;;;;;;;0.49;79.91;99656.81;5052644;28;20049;-72
2021/01/13 06:48:25;;;;;;;13.55;5.03;;;;;;;0.44;80.09;99672.66;5052696;28;20044;-72
2021/01/13 06:50:59;;;;;;;10.40;5.32;;;;;;;0.42;79.39;99650.88;5034568;28;20537;-71
2021/01/13 06:53:36;;;;;;;9.25;5.00;;;;;;;0.50;79.24;99656.75;5034620;28;20048;-71
2021/01/13 06:56:14;;;;;;;10.05;5.57;;;;;;;0.50;79.42;99666.41;5034087;28;20494;-70
2021/01/13 06:58:54;;;;;;;9.35;5.38;;;;;;;0.52;79.36;99670.69;5034903;28;20415;-70
2021/01/13 07:01:20;;;;;;;9.65;5.07;;;;;;;0.40;79.29;99660.56;5052488;28;20029;-69
2021/01/13 07:03:45;;;;;;;9.50;5.47;;;;;;;0.22;79.92;99640.06;5052416;28;20115;-71
2021/01/13 07:06:11;;;;;;;12.00;5.68;;;;;;;0.12;79.69;99625.50;5052132;28;20029;-71
2021/01/13 07:08:37;;;;;;;8.80;5.13;;;;;;;0.41;79.07;99680.63;5034308;28;20032;-72
2021/01/13 07:11:11;;;;;;;8.45;4.88;;;;;;;0.43;79.26;99691.94;5054436;28;20111;-72
2021/01/13 07:13:41;;;;;;;10.00;5.38;;;;;;;0.42;79.21;99690.22;5055918;28;20367;-70
2021/01/13 07:16:08;;;;;;;10.48;5.95;;;;;;;0.44;78.90;99708.53;5055770;28;20033;-71
2021/01/13 07:18:35;;;;;;;12.05;5.30;;;;;;;0.51;78.62;99712.72;5038262;28;20041;-70
2021/01/13 07:21:11;;;;;;;9.32;5.25;;;;;;;0.19;78.76;99661.13;5021145;28;20037;-71
2021/01/13 07:23:40;;;;;;;11.52;5.28;;;;;;;0.41;77.87;99704.25;5055868;28;20037;-71
2021/01/13 07:26:06;;;;;;;9.20;5.07;;;;;;;0.42;77.96;99705.97;5055606;28;20459;-71
2021/01/13 07:28:34;;;;;;;9.20;5.20;;;;;;;0.40;77.96;99707.78;5055994;28;20383;-71
2021/01/13 07:31:01;;;;;;;9.50;4.70;;;;;;;0.26;77.87;99699.41;5055529;28;20048;-72
2021/01/13 07:33:32;;;;;;;8.65;4.75;;;;;;;0.35;76.87;99704.41;5038000;28;20033;-71
2021/01/13 07:35:59;;;;;;;9.15;4.40;;;;;;;0.36;75.89;99700.88;5056028;28;20405;-71
2021/01/13 07:38:29;;;;;;;11.38;4.50;;;;;;;0.46;75.05;99704.09;5055528;28;20183;-71
2021/01/13 07:41:06;;;;;;;7.70;4.32;;;;;;;0.19;75.45;99685.63;5055633;28;20029;-71
2021/01/13 07:44:02;;;;;;;7.80;3.92;;;;;;;0.49;75.56;99748.66;5055474;28;20041;-71
2021/01/13 07:46:33;;;;;;;8.15;3.60;;;;;;;0.55;74.36;99743.22;5055717;28;20422;-70
2021/01/13 07:49:17;;;;;;;6.28;2.92;;;;;;;0.68;72.83;99746.38;5055482;28;20120;-71
2021/01/13 07:51:50;;;;;;;7.95;3.42;;;;;;;0.65;73.16;99751.69;5037646;28;20032;-71
2021/01/13 07:54:32;;;;;;;6.95;3.08;;;;;;;0.60;72.84;99746.59;5055128;28;20025;-72
2021/01/13 07:57:06;;;;;;;7.13;2.55;;;;;;;0.62;72.80;99744.78;5037467;28;20066;-70
2021/01/13 07:59:41;;;;;;;;;;;;;;;0.65;71.80;99751.69;5055879;28;20112;-71
2021/01/13 08:02:25;;;;;;;5.22;2.72;;;;;;;0.67;72.15;99757.75;5055028;28;19931;-70
2021/01/13 08:05:09;;;;;;;4.43;2.35;;;;;;;0.72;71.71;99762.00;5037627;28;20024;-71
2021/01/13 08:07:39;;;;;;;9.77;3.45;;;;;;;0.68;71.74;99751.63;5041106;28;20030;-70
2021/01/13 08:10:06;;;;;;;6.97;3.00;;;;;;;0.56;72.20;99740.53;5035955;28;20033;-71
2021/01/13 08:12:53;;;;;;;8.00;2.83;;;;;;;0.64;71.10;99742.09;5020214;28;20124;-68
2021/01/13 08:15:39;;;;;;;5.93;2.70;;;;;;;0.86;71.31;99766.84;5054693;28;20163;-69
2021/01/13 08:18:18;;;;;;;6.90;2.83;;;;;;;0.84;70.92;99755.53;5054611;28;20078;-69
2021/01/13 08:21:14;;;;;;;5.75;2.08;;;;;;;0.84;69.87;99776.53;5054405;28;20367;-68
2021/01/13 08:24:25;;;;;;;4.13;2.28;;;;;;;0.89;70.64;99789.53;5036711;28;20036;-71
2021/01/13 08:26:26;;;;;;;5.50;2.70;;;;;;;0.88;69.85;99764.19;5047195;28;20052;-70
2021/01/13 08:28:55;;;;;;;8.43;2.60;;;;;;;1.02;69.43;99778.63;5054233;28;20513;-71
2021/01/13 08:31:26;;;;;;;6.35;2.47;;;;;;;0.97;69.97;99767.41;5054593;28;20036;-71
2021/01/13 08:34:11;;;;;;;4.45;2.22;;;;;;;1.11;69.03;99781.00;5036135;28;20090;-70
2021/01/13 08:36:39;;;;;;;4.00;2.13;;;;;;;1.01;69.44;99753.28;5054694;28;20036;-70
2021/01/13 08:39:14;;;;;;;4.57;1.90;;;;;;;1.09;69.27;99777.56;5054073;28;20057;-72
2021/01/13 08:41:45;;;;;;;4.60;1.90;;;;;;;1.16;69.15;99770.38;5020289;28;20036;-73
2021/01/13 08:44:16;;;;;;;5.32;1.95;;;;;;;1.15;69.59;99768.63;5053821;28;20028;-74
2021/01/13 08:46:44;;;;;;;7.07;2.03;;;;;;;1.15;69.77;99777.38;5053934;28;20037;-72
2021/01/13 08:49:11;;;;;;;4.10;1.88;;;;;;;0.95;68.65;99748.19;5054341;28;20382;-71
2021/01/13 08:51:36;;;;;;;5.25;1.75;;;;;;;1.14;67.38;99773.03;5054029;28;20441;-72
2021/01/13 08:54:21;;;;;;;4.35;1.80;;;;;;;1.28;67.63;99770.00;5053611;28;20037;-71
2021/01/13 08:57:07;;;;;;;5.85;2.05;;;;;;;1.33;69.00;99785.63;5053858;28;20076;-71
2021/01/13 08:59:40;;;;;;;4.22;2.10;;;;;;;1.33;68.00;99796.13;5054232;28;20064;-73
2021/01/13 09:02:12;;;;;;;2.78;1.33;;;;;;;1.28;67.75;99804.16;5053716;28;20037;-72
2021/01/13 09:04:59;;;;;;;4.13;1.40;;;;;;;1.32;68.36;99804.91;5035797;28;20098;-68
2021/01/13 09:07:26;;;;;;;5.10;2.15;;;;;;;1.37;67.30;99800.41;5036101;28;20478;-69
2021/01/13 09:10:05;;;;;;;4.32;2.15;;;;;;;1.30;68.02;99807.59;5054075;28;20075;-74
2021/01/13 09:12:34;;;;;;;4.68;2.10;;;;;;;1.33;68.61;99811.88;5053987;28;20064;-69
2021/01/13 09:15:09;;;;;;;4.75;2.15;;;;;;;1.32;68.21;99811.03;5053610;28;20029;-69
2021/01/13 09:18:02;;;;;;;4.55;2.30;;;;;;;1.15;68.76;99780.00;5053767;28;20036;-71
2021/01/13 09:20:30;;;;;;;5.22;2.20;;;;;;;1.36;68.07;99801.31;5035255;28;20048;-71
2021/01/13 09:22:57;;;;;;;6.38;2.20;;;;;;;1.39;67.46;99811.72;5035701;28;20032;-72
2021/01/13 09:25:33;;;;;;;4.82;2.40;;;;;;;1.30;68.07;99794.47;5053455;28;20041;-72
2021/01/13 09:28:14;;;;;;;7.38;2.80;;;;;;;1.44;68.31;99800.16;5053365;28;20032;-70
2021/01/13 09:30:41;;;;;;;3.92;2.13;;;;;;;1.33;68.54;99797.00;5053666;28;20029;-70
2021/01/13 09:33:13;;;;;;;3.08;1.85;;;;;;;1.34;68.31;99803.97;5018618;28;20098;-69
2021/01/13 09:35:43;;;;;;;5.00;2.30;;;;;;;1.39;68.77;99801.22;5035393;28;20028;-70
2021/01/13 09:38:12;;;;;;;5.07;2.33;;;;;;;1.54;68.90;99821.75;5052841;28;20041;-70
2021/01/13 09:41:02;;;;;;;4.05;1.75;;;;;;;1.55;69.35;99809.50;5053180;28;20032;-70
2021/01/13 09:43:27;;;;;;;5.40;2.15;;;;;;;1.62;68.85;99803.13;5036715;28;20411;-67
2021/01/13 09:45:55;;;;;;;4.28;2.03;;;;;;;1.57;70.29;99792.78;5053130;28;20036;-68
2021/01/13 09:48:20;;;;;;;5.60;2.20;;;;;;;1.71;68.87;99793.19;5053177;28;20497;-70
2021/01/13 09:50:57;;;;;;;4.38;1.60;;;;;;;1.77;68.45;99792.16;5053046;28;20037;-69
2021/01/13 09:53:29;;;;;;;7.68;2.45;;;;;;;1.78;69.06;99788.59;5034688;28;20037;-69
2021/01/13 09:56:01;;;;;;;6.57;2.20;;;;;;;1.80;68.74;99770.16;5052429;28;20482;-69
2021/01/13 09:58:37;;;;;;;4.88;1.95;;;;;;;2.03;67.74;99782.53;5053625;28;20036;-71
2021/01/13 10:01:09;;;;;;;7.32;2.35;;;;;;;1.98;68.43;99790.59;5035014;28;20367;-82
2021/01/13 10:03:34;;;;;;;7.05;2.03;;;;;;;1.90;67.65;99751.38;5035041;28;20535;-70
2021/01/13 10:06:00;;;;;;;4.20;2.10;;;;;;;1.87;67.88;99755.91;5035049;28;20033;-71
2021/01/13 10:08:32;;;;;;;6.60;2.10;;;;;;;2.09;66.36;99780.56;5052595;28;20028;-71
2021/01/13 10:11:01;;;;;;;7.63;1.83;;;;;;;2.11;66.37;99776.13;5035041;28;20045;-71
2021/01/13 10:13:29;;;;;;;7.78;2.35;;;;;;;1.92;67.19;99756.59;5035463;28;20060;-71
2021/01/13 10:16:00;;;;;;;5.38;2.33;;;;;;;2.12;67.64;99787.50;5052632;28;20397;-72
2021/01/13 10:18:27;;;;;;;7.78;3.50;;;;;;;2.07;67.73;99785.03;5052717;28;20090;-69
2021/01/13 10:21:02;;;;;;;5.30;2.25;;;;;;;2.09;67.40;99770.06;5052509;28;20471;-69
2021/01/13 10:23:30;;;;;;;5.15;1.83;;;;;;;2.15;65.65;99775.13;5052622;28;20036;-70
2021/01/13 10:26:04;;;;;;;5.43;2.08;;;;;;;2.09;66.03;99756.91;5034862;28;20052;-68
2021/01/13 10:28:30;;;;;;;4.72;1.92;;;;;;;2.10;66.31;99769.13;5052217;28;20059;-70
2021/01/13 10:30:55;;;;;;;3.97;2.00;;;;;;;2.18;66.13;99771.53;5052514;28;20490;-71
2021/01/13 10:33:45;;;;;;;8.88;2.17;;;;;;;2.18;66.30;99780.28;5052632;28;20025;-70
2021/01/13 10:36:39;;;;;;;6.18;2.33;;;;;;;2.21;65.98;99781.94;5032404;28;20147;-70
2021/01/13 10:39:04;;;;;;;6.60;2.38;;;;;;;2.39;64.30;99775.19;5032351;28;20391;-71
2021/01/13 10:41:38;;;;;;;7.28;2.20;;;;;;;2.44;64.32;99763.59;5032101;28;20040;-71
2021/01/13 10:44:10;;;;;;;6.88;2.03;;;;;;;2.59;63.73;99770.09;5015090;28;20083;-70
2021/01/13 10:46:42;;;;;;;11.90;2.22;;;;;;;2.56;63.85;99772.84;5018147;28;20413;-71
2021/01/13 10:49:18;;;;;;;4.70;2.05;;;;;;;2.39;63.62;99781.31;5036309;28;20040;-73
2021/01/13 10:51:50;;;;;;;5.22;2.00;;;;;;;2.34;63.78;99756.09;5036313;28;20024;-70
2021/01/13 10:54:22;;;;;;;8.52;2.25;;;;;;;2.09;64.25;99714.81;5036574;28;20021;-70
2021/01/13 10:57:03;;;;;;;6.00;2.20;;;;;;;2.05;64.90;99697.41;5036569;28;20145;-70
2021/01/13 10:59:29;;;;;;;3.30;1.48;;;;;;;2.11;63.97;99715.59;5018511;28;20060;-70
2021/01/13 11:01:59;;;;;;;3.45;1.50;;;;;;;2.43;63.33;99750.50;5018517;28;20106;-69
2021/01/13 11:04:29;;;;;;;4.45;1.55;;;;;;;2.53;63.48;99772.97;5048326;28;20032;-72
2021/01/13 11:07:06;;;;;;;5.82;1.90;;;;;;;2.57;63.76;99740.31;5076421;28;20028;-70
2021/01/13 11:09:32;;;;;;;8.02;2.08;;;;;;;2.52;63.65;99739.66;5076047;28;20036;-69
2021/01/13 11:11:58;;;;;;;4.25;1.90;;;;;;;2.53;63.38;99741.38;5075835;28;20032;-73
2021/01/13 11:14:29;;;;;;;9.60;1.95;;;;;;;2.33;63.26;99701.72;5057902;28;20043;-70
2021/01/13 11:17:11;;;;;;;4.75;1.75;;;;;;;2.53;63.45;99736.09;5057993;28;20043;-72
2021/01/13 11:19:42;;;;;;;7.57;2.00;;;;;;;2.45;63.46;99727.59;5058400;28;20409;-71
2021/01/13 11:22:08;;;;;;;3.88;1.88;;;;;;;2.66;63.24;99733.88;5058033;28;20039;-71
2021/01/13 11:24:40;;;;;;;4.43;1.70;;;;;;;2.66;62.21;99724.19;5075799;28;20029;-71
2021/01/13 11:27:09;;;;;;;5.57;1.80;;;;;;;2.57;62.32;99701.69;5075746;28;20043;-68
2021/01/13 11:29:37;;;;;;;6.05;1.67;;;;;;;2.74;61.44;99714.25;5075800;28;20021;-68
2021/01/13 11:32:05;;;;;;;3.63;1.30;;;;;;;2.84;61.14;99739.34;5057804;28;20055;-68
2021/01/13 11:34:31;;;;;;;3.53;1.50;;;;;;;2.84;61.52;99709.50;5043875;28;20029;-69
2021/01/13 11:37:13;;;;;;;4.18;1.88;;;;;;;2.83;61.14;99723.59;5035558;28;20091;-69
2021/01/13 11:39:45;;;;;;;4.88;1.60;;;;;;;2.74;61.72;99682.66;5035567;28;20133;-68
2021/01/13 11:42:21;;;;;;;5.80;1.30;;;;;;;2.86;61.61;99726.09;5035500;28;20030;-72
2021/01/13 11:44:56;;;;;;;5.05;1.42;;;;;;;2.85;60.01;99703.31;5035812;28;20033;-67
2021/01/13 11:47:26;;;;;;;13.27;1.90;;;;;;;3.01;60.61;99729.97;5035305;28;20040;-67
2021/01/13 11:49:59;;;;;;;9.20;2.10;;;;;;;2.96;60.22;99729.25;5035315;28;20386;-68
2021/01/13 11:52:31;;;;;;;5.50;2.03;;;;;;;3.04;60.81;99741.22;5035311;28;20045;-70